sensor_id;sensor_type;location;lat;lon;timestamp;temperature;humidity
19389;DHT22;9830;41.876;23.474;2023-01-04T00:01:14;-2.70;99.90
19389;DHT22;9830;41.876;23.474;2023-01-04T00:03:40;-2.70;99.90
19389;DHT22;9830;41.876;23.474;2023-01-04T00:06:08;-2.70;99.90
19389;DHT22;9830;41.876;23.474;2023-01-04T00:08:34;-2.70;99.90
19389;DHT22;9830;41.876;23.474;2023-01-04T00:11:25;-2.80;99.90
19389;DHT22;9830;41.876;23.474;2023-01-04T00:13:51;-2.70;99.90
19389;DHT22;9830;41.876;23.474;2023-01-04T00:16:23;-2.70;99.90
19389;DHT22;9830;41.876;23.474;2023-01-04T00:18:49;-2.70;99.90
19389;DHT22;9830;41.876;23.474;2023-01-04T00:21:18;-2.80;99.90
19389;DHT22;9830;41.876;23.474;2023-01-04T00:23:46;-2.80;99.90
19389;DHT22;9830;41.876;23.474;2023-01-04T00:26:18;-2.80;99.90
19389;DHT22;9830;41.876;23.474;2023-01-04T00:28:44;-2.70;99.90
19389;DHT22;9830;41.876;23.474;2023-01-04T00:31:13;-2.70;99.90
19389;DHT22;9830;41.876;23.474;2023-01-04T00:33:40;-2.80;99.90
19389;DHT22;9830;41.876;23.474;2023-01-04T00:36:11;-2.90;99.90
19389;DHT22;9830;41.876;23.474;2023-01-04T00:38:38;-2.90;99.90
19389;DHT22;9830;41.876;23.474;2023-01-04T00:41:05;-2.90;99.90
19389;DHT22;9830;41.876;23.474;2023-01-04T00:43:31;-2.90;99.90
19389;DHT22;9830;41.876;23.474;2023-01-04T00:45:57;-2.90;99.90
19389;DHT22;9830;41.876;23.474;2023-01-04T00:48:23;-2.90;99.90
19389;DHT22;9830;41.876;23.474;2023-01-04T00:50:49;-2.90;99.90
19389;DHT22;9830;41.876;23.474;2023-01-04T00:53:16;-3.00;99.90
19389;DHT22;9830;41.876;23.474;2023-01-04T00:55:42;-3.00;99.90
19389;DHT22;9830;41.876;23.474;2023-01-04T00:58:08;-3.00;99.90
19389;DHT22;9830;41.876;23.474;2023-01-04T01:00:33;-3.00;99.90
19389;DHT22;9830;41.876;23.474;2023-01-04T01:02:59;-3.10;99.90
19389;DHT22;9830;41.876;23.474;2023-01-04T01:05:25;-3.00;99.90
19389;DHT22;9830;41.876;23.474;2023-01-04T01:07:51;-3.00;99.90
19389;DHT22;9830;41.876;23.474;2023-01-04T01:10:17;-3.00;99.90
19389;DHT22;9830;41.876;23.474;2023-01-04T01:12:42;-3.00;99.90
19389;DHT22;9830;41.876;23.474;2023-01-04T01:15:09;-3.00;99.90
19389;DHT22;9830;41.876;23.474;2023-01-04T01:17:34;-3.10;99.90
19389;DHT22;9830;41.876;23.474;2023-01-04T01:20:02;-3.10;99.90
19389;DHT22;9830;41.876;23.474;2023-01-04T01:22:30;-3.10;99.90
19389;DHT22;9830;41.876;23.474;2023-01-04T01:24:55;-3.10;99.90
19389;DHT22;9830;41.876;23.474;2023-01-04T01:27:21;-3.10;99.90
19389;DHT22;9830;41.876;23.474;2023-01-04T01:29:47;-3.20;99.90
19389;DHT22;9830;41.876;23.474;2023-01-04T01:32:13;-3.10;99.90
19389;DHT22;9830;41.876;23.474;2023-01-04T01:34:38;-3.10;99.90
19389;DHT22;9830;41.876;23.474;2023-01-04T01:37:04;-3.20;99.90
19389;DHT22;9830;41.876;23.474;2023-01-04T01:39:30;-3.20;99.90
19389;DHT22;9830;41.876;23.474;2023-01-04T01:41:56;-3.20;99.90
19389;DHT22;9830;41.876;23.474;2023-01-04T01:47:16;-3.30;99.90
19389;DHT22;9830;41.876;23.474;2023-01-04T01:49:42;-3.20;99.90
19389;DHT22;9830;41.876;23.474;2023-01-04T01:52:32;-3.30;99.90
19389;DHT22;9830;41.876;23.474;2023-01-04T01:55:03;-3.20;99.90
19389;DHT22;9830;41.876;23.474;2023-01-04T01:57:33;-3.20;99.90
19389;DHT22;9830;41.876;23.474;2023-01-04T02:00:04;-3.20;99.90
19389;DHT22;9830;41.876;23.474;2023-01-04T02:02:30;-3.20;99.90
19389;DHT22;9830;41.876;23.474;2023-01-04T02:04:57;-3.30;99.90
19389;DHT22;9830;41.876;23.474;2023-01-04T02:07:25;-3.30;99.90
19389;DHT22;9830;41.876;23.474;2023-01-04T02:09:52;-3.30;99.90
19389;DHT22;9830;41.876;23.474;2023-01-04T02:12:18;-3.30;99.90
19389;DHT22;9830;41.876;23.474;2023-01-04T02:14:46;-3.40;99.90
19389;DHT22;9830;41.876;23.474;2023-01-04T02:17:37;-3.40;99.90
19389;DHT22;9830;41.876;23.474;2023-01-04T02:20:11;-3.40;99.90
19389;DHT22;9830;41.876;23.474;2023-01-04T02:36:35;-3.40;99.90
19389;DHT22;9830;41.876;23.474;2023-01-04T02:47:26;-3.50;99.90
19389;DHT22;9830;41.876;23.474;2023-01-04T02:52:57;-3.50;99.90
19389;DHT22;9830;41.876;23.474;2023-01-04T02:55:23;-3.40;99.90
19389;DHT22;9830;41.876;23.474;2023-01-04T02:58:41;-3.30;99.90
19389;DHT22;9830;41.876;23.474;2023-01-04T03:01:02;-3.30;99.90
19389;DHT22;9830;41.876;23.474;2023-01-04T03:07:12;-3.40;99.90
19389;DHT22;9830;41.876;23.474;2023-01-04T03:09:45;-3.50;99.90
19389;DHT22;9830;41.876;23.474;2023-01-04T03:12:26;-3.60;99.90
19389;DHT22;9830;41.876;23.474;2023-01-04T03:15:04;-3.60;99.90
19389;DHT22;9830;41.876;23.474;2023-01-04T03:17:36;-3.60;99.90
19389;DHT22;9830;41.876;23.474;2023-01-04T03:20:06;-3.60;99.90
19389;DHT22;9830;41.876;23.474;2023-01-04T03:25:24;-3.70;99.90
19389;DHT22;9830;41.876;23.474;2023-01-04T03:28:10;-3.70;99.90
19389;DHT22;9830;41.876;23.474;2023-01-04T03:31:34;-3.80;99.90
19389;DHT22;9830;41.876;23.474;2023-01-04T03:34:19;-3.80;99.90
19389;DHT22;9830;41.876;23.474;2023-01-04T03:37:17;-3.80;99.90
19389;DHT22;9830;41.876;23.474;2023-01-04T03:40:23;-3.80;99.90
19389;DHT22;9830;41.876;23.474;2023-01-04T03:43:22;-3.80;99.90
19389;DHT22;9830;41.876;23.474;2023-01-04T03:46:19;-3.70;99.90
19389;DHT22;9830;41.876;23.474;2023-01-04T03:52:26;-3.90;99.90
19389;DHT22;9830;41.876;23.474;2023-01-04T03:54:53;-3.90;99.90
19389;DHT22;9830;41.876;23.474;2023-01-04T03:57:21;-3.90;99.90
19389;DHT22;9830;41.876;23.474;2023-01-04T03:59:51;-3.90;99.90
19389;DHT22;9830;41.876;23.474;2023-01-04T04:02:23;-3.90;99.90
19389;DHT22;9830;41.876;23.474;2023-01-04T04:04:49;-3.90;99.90
19389;DHT22;9830;41.876;23.474;2023-01-04T04:07:33;-3.90;99.90
19389;DHT22;9830;41.876;23.474;2023-01-04T04:10:17;-4.00;99.90
19389;DHT22;9830;41.876;23.474;2023-01-04T04:12:43;-4.00;99.90
19389;DHT22;9830;41.876;23.474;2023-01-04T04:15:09;-4.00;99.90
19389;DHT22;9830;41.876;23.474;2023-01-04T04:17:35;-4.00;99.90
19389;DHT22;9830;41.876;23.474;2023-01-04T04:20:00;-4.00;99.90
19389;DHT22;9830;41.876;23.474;2023-01-04T04:22:26;-4.00;99.90
19389;DHT22;9830;41.876;23.474;2023-01-04T04:24:52;-4.00;99.90
19389;DHT22;9830;41.876;23.474;2023-01-04T04:27:17;-4.10;99.90
19389;DHT22;9830;41.876;23.474;2023-01-04T04:29:43;-4.10;99.90
19389;DHT22;9830;41.876;23.474;2023-01-04T04:32:08;-4.10;99.90
19389;DHT22;9830;41.876;23.474;2023-01-04T04:34:34;-4.20;99.90
19389;DHT22;9830;41.876;23.474;2023-01-04T04:37:01;-4.10;99.90
19389;DHT22;9830;41.876;23.474;2023-01-04T04:39:26;-4.10;99.90
19389;DHT22;9830;41.876;23.474;2023-01-04T04:41:52;-4.10;99.90
19389;DHT22;9830;41.876;23.474;2023-01-04T04:44:19;-4.10;99.90
19389;DHT22;9830;41.876;23.474;2023-01-04T04:46:46;-4.10;99.90
19389;DHT22;9830;41.876;23.474;2023-01-04T04:49:12;-4.10;99.90
19389;DHT22;9830;41.876;23.474;2023-01-04T04:51:39;-4.10;99.90
19389;DHT22;9830;41.876;23.474;2023-01-04T04:54:06;-4.20;99.90
19389;DHT22;9830;41.876;23.474;2023-01-04T04:56:32;-4.20;99.90
19389;DHT22;9830;41.876;23.474;2023-01-04T04:58:58;-4.20;99.90
19389;DHT22;9830;41.876;23.474;2023-01-04T05:01:24;-4.20;99.90
19389;DHT22;9830;41.876;23.474;2023-01-04T05:03:49;-4.20;99.90
19389;DHT22;9830;41.876;23.474;2023-01-04T05:06:15;-4.20;99.90
19389;DHT22;9830;41.876;23.474;2023-01-04T05:08:41;-4.20;99.90
19389;DHT22;9830;41.876;23.474;2023-01-04T05:11:08;-4.20;99.90
19389;DHT22;9830;41.876;23.474;2023-01-04T05:13:34;-4.30;99.90
19389;DHT22;9830;41.876;23.474;2023-01-04T05:16:01;-4.20;99.90
19389;DHT22;9830;41.876;23.474;2023-01-04T05:18:27;-4.20;99.90
19389;DHT22;9830;41.876;23.474;2023-01-04T05:20:53;-4.20;99.90
19389;DHT22;9830;41.876;23.474;2023-01-04T05:23:20;-4.20;99.90
19389;DHT22;9830;41.876;23.474;2023-01-04T05:25:54;-4.20;99.90
19389;DHT22;9830;41.876;23.474;2023-01-04T05:28:21;-4.30;99.90
19389;DHT22;9830;41.876;23.474;2023-01-04T05:30:50;-4.30;99.90
19389;DHT22;9830;41.876;23.474;2023-01-04T05:33:20;-4.30;99.90
19389;DHT22;9830;41.876;23.474;2023-01-04T05:35:46;-4.30;99.90
19389;DHT22;9830;41.876;23.474;2023-01-04T05:38:12;-4.30;99.90
19389;DHT22;9830;41.876;23.474;2023-01-04T05:40:38;-4.40;99.90
19389;DHT22;9830;41.876;23.474;2023-01-04T05:43:04;-4.40;99.90
19389;DHT22;9830;41.876;23.474;2023-01-04T05:45:30;-4.30;99.90
19389;DHT22;9830;41.876;23.474;2023-01-04T05:47:55;-4.20;99.90
19389;DHT22;9830;41.876;23.474;2023-01-04T05:50:22;-4.20;99.90
19389;DHT22;9830;41.876;23.474;2023-01-04T05:52:49;-4.20;99.90
19389;DHT22;9830;41.876;23.474;2023-01-04T05:55:15;-4.30;99.90
19389;DHT22;9830;41.876;23.474;2023-01-04T05:57:41;-4.30;99.90
19389;DHT22;9830;41.876;23.474;2023-01-04T06:00:08;-4.20;99.90
19389;DHT22;9830;41.876;23.474;2023-01-04T06:02:34;-4.20;99.90
19389;DHT22;9830;41.876;23.474;2023-01-04T06:05:00;-4.10;99.90
19389;DHT22;9830;41.876;23.474;2023-01-04T06:07:29;-4.20;99.90
19389;DHT22;9830;41.876;23.474;2023-01-04T06:09:55;-4.20;99.90
19389;DHT22;9830;41.876;23.474;2023-01-04T06:12:20;-4.20;99.90
19389;DHT22;9830;41.876;23.474;2023-01-04T06:14:46;-4.30;99.90
19389;DHT22;9830;41.876;23.474;2023-01-04T06:17:12;-4.20;99.90
19389;DHT22;9830;41.876;23.474;2023-01-04T06:19:38;-4.20;99.90
19389;DHT22;9830;41.876;23.474;2023-01-04T06:22:03;-4.10;99.90
19389;DHT22;9830;41.876;23.474;2023-01-04T06:24:29;-4.10;99.90
19389;DHT22;9830;41.876;23.474;2023-01-04T06:27:09;-4.10;99.90
19389;DHT22;9830;41.876;23.474;2023-01-04T06:29:34;-4.00;99.90
19389;DHT22;9830;41.876;23.474;2023-01-04T06:32:00;-3.80;99.90
19389;DHT22;9830;41.876;23.474;2023-01-04T06:34:26;-3.60;99.90
19389;DHT22;9830;41.876;23.474;2023-01-04T06:36:51;-3.50;99.90
19389;DHT22;9830;41.876;23.474;2023-01-04T06:39:17;-3.40;99.90
19389;DHT22;9830;41.876;23.474;2023-01-04T06:41:43;-3.20;99.90
19389;DHT22;9830;41.876;23.474;2023-01-04T06:44:08;-2.90;99.90
19389;DHT22;9830;41.876;23.474;2023-01-04T06:46:34;-2.50;99.90
19389;DHT22;9830;41.876;23.474;2023-01-04T06:49:00;-2.10;99.90
19389;DHT22;9830;41.876;23.474;2023-01-04T06:51:25;-1.90;99.90
19389;DHT22;9830;41.876;23.474;2023-01-04T06:53:51;-1.40;99.90
19389;DHT22;9830;41.876;23.474;2023-01-04T06:56:17;-0.30;99.90
19389;DHT22;9830;41.876;23.474;2023-01-04T06:58:43;0.10;99.90
19389;DHT22;9830;41.876;23.474;2023-01-04T07:01:08;1.40;99.90
19389;DHT22;9830;41.876;23.474;2023-01-04T07:03:34;2.30;99.90
19389;DHT22;9830;41.876;23.474;2023-01-04T07:06:03;2.50;99.90
19389;DHT22;9830;41.876;23.474;2023-01-04T07:08:31;2.80;99.90
19389;DHT22;9830;41.876;23.474;2023-01-04T07:10:57;3.00;99.90
19389;DHT22;9830;41.876;23.474;2023-01-04T07:13:22;3.10;99.90
19389;DHT22;9830;41.876;23.474;2023-01-04T07:15:48;3.30;99.90
19389;DHT22;9830;41.876;23.474;2023-01-04T07:18:14;3.40;99.90
19389;DHT22;9830;41.876;23.474;2023-01-04T07:20:39;4.30;99.90
19389;DHT22;9830;41.876;23.474;2023-01-04T07:23:06;5.20;97.50
19389;DHT22;9830;41.876;23.474;2023-01-04T07:25:32;5.40;95.20
19389;DHT22;9830;41.876;23.474;2023-01-04T07:27:58;5.30;94.50
19389;DHT22;9830;41.876;23.474;2023-01-04T07:30:24;8.10;81.60
19389;DHT22;9830;41.876;23.474;2023-01-04T07:32:51;8.60;74.90
19389;DHT22;9830;41.876;23.474;2023-01-04T07:35:17;10.60;64.00
19389;DHT22;9830;41.876;23.474;2023-01-04T07:37:43;11.40;58.10
19389;DHT22;9830;41.876;23.474;2023-01-04T07:40:09;11.30;56.90
19389;DHT22;9830;41.876;23.474;2023-01-04T07:42:36;10.90;57.50
19389;DHT22;9830;41.876;23.474;2023-01-04T07:45:02;10.00;58.10
19389;DHT22;9830;41.876;23.474;2023-01-04T07:47:28;9.00;64.70
19389;DHT22;9830;41.876;23.474;2023-01-04T07:49:54;10.60;61.30
19389;DHT22;9830;41.876;23.474;2023-01-04T07:52:20;12.00;55.90
19389;DHT22;9830;41.876;23.474;2023-01-04T07:54:46;12.20;54.50
19389;DHT22;9830;41.876;23.474;2023-01-04T07:57:11;11.50;54.60
19389;DHT22;9830;41.876;23.474;2023-01-04T07:59:37;11.80;54.80
19389;DHT22;9830;41.876;23.474;2023-01-04T08:02:03;11.90;53.60
19389;DHT22;9830;41.876;23.474;2023-01-04T08:04:28;12.10;54.30
19389;DHT22;9830;41.876;23.474;2023-01-04T08:06:54;12.60;53.00
19389;DHT22;9830;41.876;23.474;2023-01-04T08:09:20;13.40;52.00
19389;DHT22;9830;41.876;23.474;2023-01-04T08:11:45;11.30;55.40
19389;DHT22;9830;41.876;23.474;2023-01-04T08:14:11;10.80;58.30
19389;DHT22;9830;41.876;23.474;2023-01-04T08:16:39;10.50;61.10
19389;DHT22;9830;41.876;23.474;2023-01-04T08:19:17;10.90;61.20
19389;DHT22;9830;41.876;23.474;2023-01-04T08:21:43;13.10;55.90
19389;DHT22;9830;41.876;23.474;2023-01-04T08:24:10;13.00;53.10
19389;DHT22;9830;41.876;23.474;2023-01-04T08:26:36;12.00;56.50
19389;DHT22;9830;41.876;23.474;2023-01-04T08:29:02;13.50;53.20
19389;DHT22;9830;41.876;23.474;2023-01-04T08:31:29;11.90;55.40
19389;DHT22;9830;41.876;23.474;2023-01-04T08:33:56;12.00;58.00
19389;DHT22;9830;41.876;23.474;2023-01-04T08:36:29;13.40;53.90
19389;DHT22;9830;41.876;23.474;2023-01-04T08:39:08;14.60;50.70
19389;DHT22;9830;41.876;23.474;2023-01-04T08:41:34;13.20;54.20
19389;DHT22;9830;41.876;23.474;2023-01-04T08:44:19;13.20;54.90
19389;DHT22;9830;41.876;23.474;2023-01-04T08:46:45;13.80;53.00
19389;DHT22;9830;41.876;23.474;2023-01-04T08:49:11;12.90;55.40
19389;DHT22;9830;41.876;23.474;2023-01-04T08:51:37;13.60;55.20
19389;DHT22;9830;41.876;23.474;2023-01-04T08:54:08;12.60;56.20
19389;DHT22;9830;41.876;23.474;2023-01-04T08:56:35;13.50;56.00
19389;DHT22;9830;41.876;23.474;2023-01-04T08:59:01;15.70;49.70
19389;DHT22;9830;41.876;23.474;2023-01-04T09:01:27;15.60;48.10
19389;DHT22;9830;41.876;23.474;2023-01-04T09:03:55;14.00;51.10
19389;DHT22;9830;41.876;23.474;2023-01-04T09:06:20;15.70;50.00
19389;DHT22;9830;41.876;23.474;2023-01-04T09:08:46;17.10;47.20
19389;DHT22;9830;41.876;23.474;2023-01-04T09:11:14;17.40;46.10
19389;DHT22;9830;41.876;23.474;2023-01-04T09:13:41;17.50;45.40
19389;DHT22;9830;41.876;23.474;2023-01-04T09:16:16;16.90;46.50
19389;DHT22;9830;41.876;23.474;2023-01-04T09:18:42;16.60;47.40
19389;DHT22;9830;41.876;23.474;2023-01-04T09:21:13;16.20;47.20
19389;DHT22;9830;41.876;23.474;2023-01-04T09:23:39;16.40;46.90
19389;DHT22;9830;41.876;23.474;2023-01-04T09:26:11;16.60;46.60
19389;DHT22;9830;41.876;23.474;2023-01-04T09:28:38;17.30;45.50
19389;DHT22;9830;41.876;23.474;2023-01-04T09:31:25;17.70;45.10
19389;DHT22;9830;41.876;23.474;2023-01-04T09:33:51;17.40;45.70
19389;DHT22;9830;41.876;23.474;2023-01-04T09:36:17;16.80;47.80
19389;DHT22;9830;41.876;23.474;2023-01-04T09:38:43;16.70;48.00
19389;DHT22;9830;41.876;23.474;2023-01-04T09:44:14;16.50;48.80
19389;DHT22;9830;41.876;23.474;2023-01-04T09:49:23;16.20;49.90
19389;DHT22;9830;41.876;23.474;2023-01-04T09:52:19;16.70;48.70
19389;DHT22;9830;41.876;23.474;2023-01-04T09:55:01;16.80;48.20
19389;DHT22;9830;41.876;23.474;2023-01-04T09:57:47;17.10;47.50
19389;DHT22;9830;41.876;23.474;2023-01-04T10:00:36;16.90;48.20
19389;DHT22;9830;41.876;23.474;2023-01-04T10:03:21;17.00;48.10
19389;DHT22;9830;41.876;23.474;2023-01-04T10:05:49;17.30;47.60
19389;DHT22;9830;41.876;23.474;2023-01-04T10:08:17;17.00;47.90
19389;DHT22;9830;41.876;23.474;2023-01-04T10:13:57;16.20;49.60
19389;DHT22;9830;41.876;23.474;2023-01-04T10:21:50;15.60;51.70
19389;DHT22;9830;41.876;23.474;2023-01-04T10:32:41;16.00;50.90
19389;DHT22;9830;41.876;23.474;2023-01-04T10:35:26;16.70;49.80
19389;DHT22;9830;41.876;23.474;2023-01-04T10:37:57;16.60;50.00
19389;DHT22;9830;41.876;23.474;2023-01-04T10:40:24;16.70;49.90
19389;DHT22;9830;41.876;23.474;2023-01-04T10:48:26;16.50;49.50
19389;DHT22;9830;41.876;23.474;2023-01-04T10:51:04;16.60;50.30
19389;DHT22;9830;41.876;23.474;2023-01-04T10:56:55;16.40;50.60
19389;DHT22;9830;41.876;23.474;2023-01-04T10:59:57;16.70;51.00
19389;DHT22;9830;41.876;23.474;2023-01-04T11:02:23;15.70;53.40
19389;DHT22;9830;41.876;23.474;2023-01-04T11:05:15;14.50;56.90
19389;DHT22;9830;41.876;23.474;2023-01-04T11:08:07;13.60;61.50
19389;DHT22;9830;41.876;23.474;2023-01-04T11:10:43;12.70;68.70
19389;DHT22;9830;41.876;23.474;2023-01-04T11:13:11;11.90;75.90
19389;DHT22;9830;41.876;23.474;2023-01-04T11:15:37;11.60;80.50
19389;DHT22;9830;41.876;23.474;2023-01-04T11:18:05;11.20;84.40
19389;DHT22;9830;41.876;23.474;2023-01-04T11:20:32;11.30;83.90
19389;DHT22;9830;41.876;23.474;2023-01-04T11:23:20;11.30;82.20
19389;DHT22;9830;41.876;23.474;2023-01-04T11:25:52;11.30;80.40
19389;DHT22;9830;41.876;23.474;2023-01-04T11:28:32;11.40;80.90
19389;DHT22;9830;41.876;23.474;2023-01-04T11:33:51;11.50;79.10
19389;DHT22;9830;41.876;23.474;2023-01-04T11:36:43;11.80;78.30
19389;DHT22;9830;41.876;23.474;2023-01-04T11:39:21;12.00;78.10
19389;DHT22;9830;41.876;23.474;2023-01-04T11:42:02;11.70;79.00
19389;DHT22;9830;41.876;23.474;2023-01-04T11:44:33;11.90;77.60
19389;DHT22;9830;41.876;23.474;2023-01-04T11:47:18;12.00;74.40
19389;DHT22;9830;41.876;23.474;2023-01-04T11:49:45;12.00;71.60
19389;DHT22;9830;41.876;23.474;2023-01-04T11:54:52;12.00;70.70
19389;DHT22;9830;41.876;23.474;2023-01-04T11:57:19;12.00;71.70
19389;DHT22;9830;41.876;23.474;2023-01-04T11:59:45;11.90;71.80
19389;DHT22;9830;41.876;23.474;2023-01-04T12:02:30;11.90;74.20
19389;DHT22;9830;41.876;23.474;2023-01-04T12:04:56;11.90;73.90
19389;DHT22;9830;41.876;23.474;2023-01-04T12:07:33;11.90;74.10
19389;DHT22;9830;41.876;23.474;2023-01-04T12:10:01;12.00;73.80
19389;DHT22;9830;41.876;23.474;2023-01-04T12:12:30;12.00;74.80
19389;DHT22;9830;41.876;23.474;2023-01-04T12:15:07;12.00;73.90
19389;DHT22;9830;41.876;23.474;2023-01-04T12:17:46;12.30;73.20
19389;DHT22;9830;41.876;23.474;2023-01-04T12:20:26;12.40;72.60
19389;DHT22;9830;41.876;23.474;2023-01-04T12:22:52;12.40;73.60
19389;DHT22;9830;41.876;23.474;2023-01-04T12:27:51;12.40;81.40
19389;DHT22;9830;41.876;23.474;2023-01-04T12:30:41;12.40;82.10
19389;DHT22;9830;41.876;23.474;2023-01-04T12:41:22;12.20;83.60
19389;DHT22;9830;41.876;23.474;2023-01-04T12:43:49;12.10;85.30
19389;DHT22;9830;41.876;23.474;2023-01-04T12:54:54;11.80;86.20
19389;DHT22;9830;41.876;23.474;2023-01-04T12:57:34;11.80;86.90
19389;DHT22;9830;41.876;23.474;2023-01-04T13:02:41;11.70;87.60
19389;DHT22;9830;41.876;23.474;2023-01-04T13:07:54;11.70;88.80
19389;DHT22;9830;41.876;23.474;2023-01-04T13:10:49;11.70;88.00
19389;DHT22;9830;41.876;23.474;2023-01-04T13:19:01;11.50;88.40
19389;DHT22;9830;41.876;23.474;2023-01-04T13:24:28;11.40;90.00
19389;DHT22;9830;41.876;23.474;2023-01-04T13:27:14;11.30;90.00
19389;DHT22;9830;41.876;23.474;2023-01-04T13:29:40;11.10;90.30
19389;DHT22;9830;41.876;23.474;2023-01-04T13:34:51;10.90;91.60
19389;DHT22;9830;41.876;23.474;2023-01-04T13:42:45;10.80;92.50
19389;DHT22;9830;41.876;23.474;2023-01-04T13:45:35;10.70;92.70
19389;DHT22;9830;41.876;23.474;2023-01-04T13:48:11;10.70;92.70
19389;DHT22;9830;41.876;23.474;2023-01-04T13:50:43;10.60;93.20
19389;DHT22;9830;41.876;23.474;2023-01-04T13:53:30;10.50;93.20
19389;DHT22;9830;41.876;23.474;2023-01-04T13:56:01;10.40;94.10
19389;DHT22;9830;41.876;23.474;2023-01-04T13:58:30;10.20;94.70
19389;DHT22;9830;41.876;23.474;2023-01-04T14:01:03;10.00;95.30
19389;DHT22;9830;41.876;23.474;2023-01-04T14:03:39;9.90;95.70
19389;DHT22;9830;41.876;23.474;2023-01-04T14:09:23;9.60;96.90
19389;DHT22;9830;41.876;23.474;2023-01-04T14:17:22;9.10;99.70
19389;DHT22;9830;41.876;23.474;2023-01-04T14:33:31;7.80;99.90
19389;DHT22;9830;41.876;23.474;2023-01-04T14:36:27;7.70;99.90
19389;DHT22;9830;41.876;23.474;2023-01-04T14:39:09;7.50;99.90
19389;DHT22;9830;41.876;23.474;2023-01-04T14:41:37;7.40;99.90
19389;DHT22;9830;41.876;23.474;2023-01-04T14:44:13;7.30;99.90
19389;DHT22;9830;41.876;23.474;2023-01-04T14:46:40;7.20;99.90
19389;DHT22;9830;41.876;23.474;2023-01-04T14:49:08;7.10;99.90
19389;DHT22;9830;41.876;23.474;2023-01-04T14:51:57;7.10;99.90
19389;DHT22;9830;41.876;23.474;2023-01-04T14:54:23;7.00;99.90
19389;DHT22;9830;41.876;23.474;2023-01-04T14:56:49;6.90;99.90
19389;DHT22;9830;41.876;23.474;2023-01-04T14:59:14;6.80;99.90
19389;DHT22;9830;41.876;23.474;2023-01-04T15:01:40;6.80;99.90
19389;DHT22;9830;41.876;23.474;2023-01-04T15:04:06;6.70;99.90
19389;DHT22;9830;41.876;23.474;2023-01-04T15:06:33;6.70;99.90
19389;DHT22;9830;41.876;23.474;2023-01-04T15:08:59;6.70;99.90
19389;DHT22;9830;41.876;23.474;2023-01-04T15:11:24;6.60;99.90
19389;DHT22;9830;41.876;23.474;2023-01-04T15:13:50;6.50;99.90
19389;DHT22;9830;41.876;23.474;2023-01-04T15:16:16;6.50;99.90
19389;DHT22;9830;41.876;23.474;2023-01-04T15:18:43;6.40;99.90
19389;DHT22;9830;41.876;23.474;2023-01-04T15:21:10;6.40;99.90
19389;DHT22;9830;41.876;23.474;2023-01-04T15:23:36;6.30;99.90
19389;DHT22;9830;41.876;23.474;2023-01-04T15:26:06;6.10;99.90
19389;DHT22;9830;41.876;23.474;2023-01-04T15:28:32;6.10;99.90
19389;DHT22;9830;41.876;23.474;2023-01-04T15:30:58;6.00;99.90
19389;DHT22;9830;41.876;23.474;2023-01-04T15:33:24;5.90;99.90
19389;DHT22;9830;41.876;23.474;2023-01-04T15:36:00;5.90;99.90
19389;DHT22;9830;41.876;23.474;2023-01-04T15:38:26;5.80;99.90
19389;DHT22;9830;41.876;23.474;2023-01-04T15:40:58;5.90;99.90
19389;DHT22;9830;41.876;23.474;2023-01-04T15:43:24;5.70;99.90
19389;DHT22;9830;41.876;23.474;2023-01-04T15:45:50;5.60;99.90
19389;DHT22;9830;41.876;23.474;2023-01-04T15:48:15;5.50;99.90
19389;DHT22;9830;41.876;23.474;2023-01-04T15:50:41;5.40;99.90
19389;DHT22;9830;41.876;23.474;2023-01-04T15:53:07;5.20;99.90
19389;DHT22;9830;41.876;23.474;2023-01-04T15:55:35;5.10;99.90
19389;DHT22;9830;41.876;23.474;2023-01-04T15:58:01;5.00;99.90
19389;DHT22;9830;41.876;23.474;2023-01-04T16:00:27;4.90;99.90
19389;DHT22;9830;41.876;23.474;2023-01-04T16:02:52;4.90;99.90
19389;DHT22;9830;41.876;23.474;2023-01-04T16:05:18;4.80;99.90
19389;DHT22;9830;41.876;23.474;2023-01-04T16:07:47;4.80;99.90
19389;DHT22;9830;41.876;23.474;2023-01-04T16:10:13;4.60;99.90
19389;DHT22;9830;41.876;23.474;2023-01-04T16:12:39;4.50;99.90
19389;DHT22;9830;41.876;23.474;2023-01-04T16:15:11;4.40;99.90
19389;DHT22;9830;41.876;23.474;2023-01-04T16:17:37;4.30;99.90
19389;DHT22;9830;41.876;23.474;2023-01-04T16:20:04;4.20;99.90
19389;DHT22;9830;41.876;23.474;2023-01-04T16:22:30;4.10;99.90
19389;DHT22;9830;41.876;23.474;2023-01-04T16:24:55;4.00;99.90
19389;DHT22;9830;41.876;23.474;2023-01-04T16:27:21;3.90;99.90
19389;DHT22;9830;41.876;23.474;2023-01-04T16:29:48;3.90;99.90
19389;DHT22;9830;41.876;23.474;2023-01-04T16:32:15;3.80;99.90
19389;DHT22;9830;41.876;23.474;2023-01-04T16:34:41;3.70;99.90
19389;DHT22;9830;41.876;23.474;2023-01-04T16:37:07;3.60;99.90
19389;DHT22;9830;41.876;23.474;2023-01-04T16:39:32;3.50;99.90
19389;DHT22;9830;41.876;23.474;2023-01-04T16:41:58;3.40;99.90
19389;DHT22;9830;41.876;23.474;2023-01-04T16:44:24;3.30;99.90
19389;DHT22;9830;41.876;23.474;2023-01-04T16:46:49;3.20;99.90
19389;DHT22;9830;41.876;23.474;2023-01-04T16:49:16;3.20;99.90
19389;DHT22;9830;41.876;23.474;2023-01-04T16:51:44;3.20;99.90
19389;DHT22;9830;41.876;23.474;2023-01-04T16:54:13;3.20;99.90
19389;DHT22;9830;41.876;23.474;2023-01-04T16:56:40;3.20;99.90
19389;DHT22;9830;41.876;23.474;2023-01-04T16:59:07;3.20;99.90
19389;DHT22;9830;41.876;23.474;2023-01-04T17:01:36;3.10;99.90
19389;DHT22;9830;41.876;23.474;2023-01-04T17:04:04;3.10;99.90
19389;DHT22;9830;41.876;23.474;2023-01-04T17:06:37;3.20;99.90
19389;DHT22;9830;41.876;23.474;2023-01-04T17:09:04;3.10;99.90
19389;DHT22;9830;41.876;23.474;2023-01-04T17:11:32;3.00;99.90
19389;DHT22;9830;41.876;23.474;2023-01-04T17:13:58;3.00;99.90
19389;DHT22;9830;41.876;23.474;2023-01-04T17:16:24;2.90;99.90
19389;DHT22;9830;41.876;23.474;2023-01-04T17:18:51;2.80;99.90
19389;DHT22;9830;41.876;23.474;2023-01-04T17:21:20;2.70;99.90
19389;DHT22;9830;41.876;23.474;2023-01-04T17:23:48;2.70;99.90
19389;DHT22;9830;41.876;23.474;2023-01-04T17:26:16;2.70;99.90
19389;DHT22;9830;41.876;23.474;2023-01-04T17:28:42;2.70;99.90
19389;DHT22;9830;41.876;23.474;2023-01-04T17:31:13;2.60;99.90
19389;DHT22;9830;41.876;23.474;2023-01-04T17:33:38;2.50;99.90
19389;DHT22;9830;41.876;23.474;2023-01-04T17:36:07;2.40;99.90
19389;DHT22;9830;41.876;23.474;2023-01-04T17:38:33;2.40;99.90
19389;DHT22;9830;41.876;23.474;2023-01-04T17:41:26;2.30;99.90
19389;DHT22;9830;41.876;23.474;2023-01-04T17:44:03;2.30;99.90
19389;DHT22;9830;41.876;23.474;2023-01-04T17:46:34;2.10;99.90
19389;DHT22;9830;41.876;23.474;2023-01-04T17:49:03;2.10;99.90
19389;DHT22;9830;41.876;23.474;2023-01-04T17:51:29;2.10;99.90
19389;DHT22;9830;41.876;23.474;2023-01-04T17:54:02;2.00;99.90
19389;DHT22;9830;41.876;23.474;2023-01-04T17:56:29;2.00;99.90
19389;DHT22;9830;41.876;23.474;2023-01-04T17:58:59;1.90;99.90
19389;DHT22;9830;41.876;23.474;2023-01-04T18:01:26;1.80;99.90
19389;DHT22;9830;41.876;23.474;2023-01-04T18:03:54;1.80;99.90
19389;DHT22;9830;41.876;23.474;2023-01-04T18:06:22;1.70;99.90
19389;DHT22;9830;41.876;23.474;2023-01-04T18:08:49;1.70;99.90
19389;DHT22;9830;41.876;23.474;2023-01-04T18:11:15;1.70;99.90